Salta, Argentina
Current Conditions -  °F | °C
As of 10:00 PM on Friday 19 Dec 2014 (Local Time) from SASA Reporting Station
Clear Clear  
Wind Chill: 23°   Ceiling: Unl
Heat Index: 23°   Visibility: 6mi
Dew Point: 18°   Wind: 2mph
Humidity: 73%   Direction: 50°NE
Pressure: 29.8"   Gusts: NA
Location:  24.79°S, 65.41°W
Report Text: SASA 200100Z 05002KT CAVOK 23/18 Q1009
Loading
Personal Weather Stations






























Interactive Weather Map New forecast layout! Learn more

10-Day Weather Forecast

Advertisements
Track Severe Weather on mobile